sensor_id;sensor_type;location;lat;lon;timestamp;pressure;altitude;pressure_sealevel;temperature;humidity
57894;BME280;43710;47.460;19.034;2023-04-19T03:57:32;100333.75;;;13.30;63.35
57894;BME280;43710;47.460;19.034;2023-04-19T04:00:36;100333.75;;;13.30;63.35
57894;BME280;43710;47.460;19.034;2023-04-19T04:03:38;100344.47;;;12.56;66.14
57894;BME280;43710;47.460;19.034;2023-04-19T04:06:41;100337.62;;;12.64;58.64
57894;BME280;43710;47.460;19.034;2023-04-19T04:09:43;100338.03;;;12.71;64.61
57894;BME280;43710;47.460;19.034;2023-04-19T04:12:48;100334.94;;;12.64;61.65
57894;BME280;43710;47.460;19.034;2023-04-19T04:15:51;100333.88;;;12.79;64.28
57894;BME280;43710;47.460;19.034;2023-04-19T04:18:54;100335.34;;;12.71;68.50
57894;BME280;43710;47.460;19.034;2023-04-19T04:21:58;100338.22;;;12.61;62.67
57894;BME280;43710;47.460;19.034;2023-04-19T04:25:01;100328.09;;;12.72;70.75
57894;BME280;43710;47.460;19.034;2023-04-19T04:28:05;100325.03;;;12.78;60.14
57894;BME280;43710;47.460;19.034;2023-04-19T04:31:07;100324.69;;;12.66;62.48
57894;BME280;43710;47.460;19.034;2023-04-19T04:34:11;100323.72;;;12.43;68.71
57894;BME280;43710;47.460;19.034;2023-04-19T04:37:14;100330.41;;;12.45;66.17
57894;BME280;43710;47.460;19.034;2023-04-19T04:40:17;100320.06;;;12.53;61.69
57894;BME280;43710;47.460;19.034;2023-04-19T04:43:22;100324.69;;;12.66;62.61
57894;BME280;43710;47.460;19.034;2023-04-19T04:46:26;100324.06;;;12.55;69.62
57894;BME280;43710;47.460;19.034;2023-04-19T04:49:29;100323.34;;;12.50;64.36
57894;BME280;43710;47.460;19.034;2023-04-19T04:52:32;100328.69;;;12.68;64.32
57894;BME280;43710;47.460;19.034;2023-04-19T04:55:40;100326.31;;;12.81;61.37
57894;BME280;43710;47.460;19.034;2023-04-19T04:58:42;100326.97;;;13.05;68.73
57894;BME280;43710;47.460;19.034;2023-04-19T05:01:45;100317.06;;;12.87;69.60
57894;BME280;43710;47.460;19.034;2023-04-19T05:04:51;100318.37;;;12.89;63.22
57894;BME280;43710;47.460;19.034;2023-04-19T05:07:53;100321.38;;;13.02;70.01
57894;BME280;43710;47.460;19.034;2023-04-19T05:10:55;100320.28;;;13.16;62.70
57894;BME280;43710;47.460;19.034;2023-04-19T05:13:58;100318.22;;;13.27;62.93
57894;BME280;43710;47.460;19.034;2023-04-19T05:17:01;100320.41;;;13.39;64.35
57894;BME280;43710;47.460;19.034;2023-04-19T05:20:07;100316.22;;;13.47;62.14
57894;BME280;43710;47.460;19.034;2023-04-19T05:23:10;100318.91;;;13.47;62.65
57894;BME280;43710;47.460;19.034;2023-04-19T05:26:14;100317.28;;;13.59;65.01
57894;BME280;43710;47.460;19.034;2023-04-19T05:29:17;100321.25;;;13.76;59.25
57894;BME280;43710;47.460;19.034;2023-04-19T05:32:19;100311.44;;;13.94;57.37
57894;BME280;43710;47.460;19.034;2023-04-19T05:35:23;100315.75;;;14.17;62.10
57894;BME280;43710;47.460;19.034;2023-04-19T05:38:25;100315.34;;;14.24;55.19
57894;BME280;43710;47.460;19.034;2023-04-19T05:41:30;100306.59;;;14.49;61.05
57894;BME280;43710;47.460;19.034;2023-04-19T05:44:32;100306.28;;;14.65;53.69
57894;BME280;43710;47.460;19.034;2023-04-19T05:47:35;100302.94;;;14.68;52.92
57894;BME280;43710;47.460;19.034;2023-04-19T05:50:38;100314.22;;;14.70;52.97
57894;BME280;43710;47.460;19.034;2023-04-19T05:53:44;100303.81;;;14.86;53.59
57894;BME280;43710;47.460;19.034;2023-04-19T05:56:47;100304.84;;;14.98;54.49
57894;BME280;43710;47.460;19.034;2023-04-19T05:59:50;100299.66;;;15.11;54.95
57894;BME280;43710;47.460;19.034;2023-04-19T06:02:52;100300.16;;;15.21;51.81
57894;BME280;43710;47.460;19.034;2023-04-19T06:05:55;100294.31;;;15.28;50.79
57894;BME280;43710;47.460;19.034;2023-04-19T06:08:58;100294.63;;;15.35;46.80
57894;BME280;43710;47.460;19.034;2023-04-19T06:12:00;100303.25;;;15.46;45.70
57894;BME280;43710;47.460;19.034;2023-04-19T06:15:04;100291.84;;;15.58;52.11
57894;BME280;43710;47.460;19.034;2023-04-19T06:18:11;100301.25;;;15.69;43.08
57894;BME280;43710;47.460;19.034;2023-04-19T06:21:20;100291.41;;;15.73;43.58
57894;BME280;43710;47.460;19.034;2023-04-19T06:24:23;100294.91;;;15.82;43.37
57894;BME280;43710;47.460;19.034;2023-04-19T06:27:25;100292.22;;;15.91;44.51
57894;BME280;43710;47.460;19.034;2023-04-19T06:30:28;100287.28;;;16.02;45.63
57894;BME280;43710;47.460;19.034;2023-04-19T06:33:30;100301.75;;;15.88;43.97
57894;BME280;43710;47.460;19.034;2023-04-19T06:36:33;100299.03;;;16.06;46.57
57894;BME280;43710;47.460;19.034;2023-04-19T06:39:35;100288.41;;;16.01;46.09
57894;BME280;43710;47.460;19.034;2023-04-19T06:42:37;100289.19;;;15.92;43.74
57894;BME280;43710;47.460;19.034;2023-04-19T06:45:40;100285.69;;;15.92;47.78
57894;BME280;43710;47.460;19.034;2023-04-19T06:48:47;100284.56;;;16.02;45.92
57894;BME280;43710;47.460;19.034;2023-04-19T06:51:50;100286.94;;;16.12;42.68
57894;BME280;43710;47.460;19.034;2023-04-19T06:54:57;100284.87;;;16.09;41.17
57894;BME280;43710;47.460;19.034;2023-04-19T06:58:04;100286.31;;;16.15;41.22
57894;BME280;43710;47.460;19.034;2023-04-19T07:01:09;100275.97;;;16.17;42.34
57894;BME280;43710;47.460;19.034;2023-04-19T07:04:12;100282.66;;;16.19;41.28
57894;BME280;43710;47.460;19.034;2023-04-19T07:07:14;100276.75;;;16.35;46.96
57894;BME280;43710;47.460;19.034;2023-04-19T07:10:17;100274.37;;;16.33;40.19
57894;BME280;43710;47.460;19.034;2023-04-19T07:13:19;100270.06;;;16.32;38.59
57894;BME280;43710;47.460;19.034;2023-04-19T07:16:22;100267.19;;;16.37;37.92
57894;BME280;43710;47.460;19.034;2023-04-19T07:19:25;100269.06;;;16.45;37.82
57894;BME280;43710;47.460;19.034;2023-04-19T07:22:27;100260.47;;;16.52;41.91
57894;BME280;43710;47.460;19.034;2023-04-19T07:25:29;100265.69;;;16.66;40.27
57894;BME280;43710;47.460;19.034;2023-04-19T07:28:32;100273.78;;;16.75;39.32
57894;BME280;43710;47.460;19.034;2023-04-19T07:31:36;100265.69;;;16.75;37.72
57894;BME280;43710;47.460;19.034;2023-04-19T07:34:39;100257.37;;;16.71;36.20
57894;BME280;43710;47.460;19.034;2023-04-19T07:37:42;100267.72;;;16.86;45.74
57894;BME280;43710;47.460;19.034;2023-04-19T07:40:44;100254.81;;;16.92;35.72
57894;BME280;43710;47.460;19.034;2023-04-19T07:43:47;100253.66;;;16.93;37.10
57894;BME280;43710;47.460;19.034;2023-04-19T07:46:49;100248.06;;;16.98;38.78
57894;BME280;43710;47.460;19.034;2023-04-19T07:49:52;100263.16;;;17.08;44.12
57894;BME280;43710;47.460;19.034;2023-04-19T07:52:54;100256.31;;;17.02;36.57
57894;BME280;43710;47.460;19.034;2023-04-19T07:55:57;100258.84;;;17.07;40.57
57894;BME280;43710;47.460;19.034;2023-04-19T07:58:59;100254.06;;;17.12;36.35
57894;BME280;43710;47.460;19.034;2023-04-19T08:02:10;100256.78;;;17.12;34.42
57894;BME280;43710;47.460;19.034;2023-04-19T08:05:14;100251.00;;;17.14;34.02
57894;BME280;43710;47.460;19.034;2023-04-19T08:08:18;100248.91;;;17.20;36.28
57894;BME280;43710;47.460;19.034;2023-04-19T08:11:21;100244.66;;;17.40;36.78
57894;BME280;43710;47.460;19.034;2023-04-19T08:14:23;100243.00;;;17.47;36.63
57894;BME280;43710;47.460;19.034;2023-04-19T08:17:41;100247.31;;;17.48;36.55
57894;BME280;43710;47.460;19.034;2023-04-19T08:20:46;100249.66;;;17.29;34.49
57894;BME280;43710;47.460;19.034;2023-04-19T08:23:48;100246.00;;;17.25;35.81
57894;BME280;43710;47.460;19.034;2023-04-19T08:26:55;100252.06;;;17.22;36.68
57894;BME280;43710;47.460;19.034;2023-04-19T08:30:01;100252.59;;;17.15;37.76
57894;BME280;43710;47.460;19.034;2023-04-19T08:33:04;100248.69;;;17.04;39.01
57894;BME280;43710;47.460;19.034;2023-04-19T08:36:07;100252.81;;;17.01;43.78
57894;BME280;43710;47.460;19.034;2023-04-19T08:39:09;100244.25;;;16.99;39.74
57894;BME280;43710;47.460;19.034;2023-04-19T08:42:26;100247.91;;;16.95;43.44
57894;BME280;43710;47.460;19.034;2023-04-19T08:45:38;100250.81;;;16.89;39.34
57894;BME280;43710;47.460;19.034;2023-04-19T08:48:41;100243.16;;;16.91;39.59
57894;BME280;43710;47.460;19.034;2023-04-19T08:51:46;100249.69;;;16.90;40.69
57894;BME280;43710;47.460;19.034;2023-04-19T08:54:49;100240.34;;;16.79;39.61
57894;BME280;43710;47.460;19.034;2023-04-19T08:57:52;100240.13;;;16.93;45.05
57894;BME280;43710;47.460;19.034;2023-04-19T09:00:56;100231.66;;;16.95;41.59
57894;BME280;43710;47.460;19.034;2023-04-19T09:03:59;100239.56;;;16.79;42.22
57894;BME280;43710;47.460;19.034;2023-04-19T09:07:22;100231.91;;;16.81;42.13
57894;BME280;43710;47.460;19.034;2023-04-19T09:10:25;100231.25;;;16.84;46.38
57894;BME280;43710;47.460;19.034;2023-04-19T09:13:28;100232.81;;;16.85;43.93
57894;BME280;43710;47.460;19.034;2023-04-19T09:16:31;100229.66;;;16.83;42.25
57894;BME280;43710;47.460;19.034;2023-04-19T09:19:47;100228.22;;;16.85;46.77
57894;BME280;43710;47.460;19.034;2023-04-19T09:23:03;100226.31;;;16.86;43.27
57894;BME280;43710;47.460;19.034;2023-04-19T09:26:07;100226.34;;;16.68;43.95
57894;BME280;43710;47.460;19.034;2023-04-19T09:29:24;100228.13;;;16.64;47.36
57894;BME280;43710;47.460;19.034;2023-04-19T09:32:44;100230.31;;;16.71;44.66
57894;BME280;43710;47.460;19.034;2023-04-19T09:35:46;100227.47;;;16.76;48.41
57894;BME280;43710;47.460;19.034;2023-04-19T09:38:51;100221.84;;;16.81;42.62
57894;BME280;43710;47.460;19.034;2023-04-19T09:41:53;100218.88;;;17.04;52.06
57894;BME280;43710;47.460;19.034;2023-04-19T09:44:59;100221.22;;;17.14;54.76
57894;BME280;43710;47.460;19.034;2023-04-19T09:48:05;100211.78;;;17.20;45.11
57894;BME280;43710;47.460;19.034;2023-04-19T09:51:09;100213.78;;;17.32;42.34
57894;BME280;43710;47.460;19.034;2023-04-19T09:54:16;100215.28;;;17.42;43.10
57894;BME280;43710;47.460;19.034;2023-04-19T09:57:19;100212.34;;;17.55;45.56
57894;BME280;43710;47.460;19.034;2023-04-19T10:00:21;100206.03;;;17.64;43.49
57894;BME280;43710;47.460;19.034;2023-04-19T10:03:26;100206.72;;;17.60;43.50
57894;BME280;43710;47.460;19.034;2023-04-19T10:06:30;100199.22;;;17.57;43.11
57894;BME280;43710;47.460;19.034;2023-04-19T10:09:54;100201.09;;;17.66;42.67
57894;BME280;43710;47.460;19.034;2023-04-19T10:13:16;100193.84;;;17.78;47.84
57894;BME280;43710;47.460;19.034;2023-04-19T10:16:25;100193.75;;;17.87;44.86
57894;BME280;43710;47.460;19.034;2023-04-19T10:19:27;100199.75;;;17.93;41.87
57894;BME280;43710;47.460;19.034;2023-04-19T10:22:31;100188.41;;;18.12;49.20
57894;BME280;43710;47.460;19.034;2023-04-19T10:25:36;100187.09;;;18.30;42.83
57894;BME280;43710;47.460;19.034;2023-04-19T10:28:40;100186.97;;;18.26;43.07
57894;BME280;43710;47.460;19.034;2023-04-19T10:31:42;100180.59;;;18.10;42.98
57894;BME280;43710;47.460;19.034;2023-04-19T10:34:45;100186.44;;;18.00;45.34
57894;BME280;43710;47.460;19.034;2023-04-19T10:38:10;100170.75;;;18.05;49.19
57894;BME280;43710;47.460;19.034;2023-04-19T10:41:15;100177.56;;;18.24;46.66
57894;BME280;43710;47.460;19.034;2023-04-19T10:44:19;100169.66;;;18.19;51.30
57894;BME280;43710;47.460;19.034;2023-04-19T10:47:44;100185.53;;;17.96;51.37
57894;BME280;43710;47.460;19.034;2023-04-19T10:54:07;100188.66;;;17.44;49.53
57894;BME280;43710;47.460;19.034;2023-04-19T10:57:10;100183.28;;;17.14;49.36
57894;BME280;43710;47.460;19.034;2023-04-19T11:00:19;100182.56;;;17.05;49.26
57894;BME280;43710;47.460;19.034;2023-04-19T11:09:52;100183.59;;;16.91;48.60
57894;BME280;43710;47.460;19.034;2023-04-19T11:12:56;100180.22;;;16.95;48.90
57894;BME280;43710;47.460;19.034;2023-04-19T11:15:59;100178.59;;;17.02;50.39
57894;BME280;43710;47.460;19.034;2023-04-19T11:19:09;100175.69;;;17.07;48.32
57894;BME280;43710;47.460;19.034;2023-04-19T11:22:12;100174.72;;;17.12;47.67
57894;BME280;43710;47.460;19.034;2023-04-19T11:25:17;100175.16;;;17.14;45.62
57894;BME280;43710;47.460;19.034;2023-04-19T11:28:20;100177.84;;;17.23;47.25
57894;BME280;43710;47.460;19.034;2023-04-19T11:31:22;100172.41;;;17.23;47.73
57894;BME280;43710;47.460;19.034;2023-04-19T11:34:26;100172.03;;;17.33;51.54
57894;BME280;43710;47.460;19.034;2023-04-19T11:37:31;100176.97;;;17.31;46.55
57894;BME280;43710;47.460;19.034;2023-04-19T11:40:37;100169.75;;;17.35;47.38
57894;BME280;43710;47.460;19.034;2023-04-19T11:43:40;100166.84;;;17.40;48.29
57894;BME280;43710;47.460;19.034;2023-04-19T11:46:59;100176.00;;;17.35;47.74
57894;BME280;43710;47.460;19.034;2023-04-19T11:50:30;100171.53;;;17.31;49.86
57894;BME280;43710;47.460;19.034;2023-04-19T11:53:33;100170.56;;;17.35;52.30
57894;BME280;43710;47.460;19.034;2023-04-19T11:56:35;100170.16;;;17.25;53.33
57894;BME280;43710;47.460;19.034;2023-04-19T11:59:37;100170.81;;;17.22;54.94
57894;BME280;43710;47.460;19.034;2023-04-19T12:02:41;100170.34;;;17.20;53.46
57894;BME280;43710;47.460;19.034;2023-04-19T12:05:52;100177.84;;;17.23;51.33
57894;BME280;43710;47.460;19.034;2023-04-19T12:08:55;100170.97;;;17.25;50.72
57894;BME280;43710;47.460;19.034;2023-04-19T12:11:58;100158.78;;;17.31;48.87
57894;BME280;43710;47.460;19.034;2023-04-19T12:15:00;100165.94;;;17.36;50.78
57894;BME280;43710;47.460;19.034;2023-04-19T12:18:03;100172.53;;;17.47;49.81
57894;BME280;43710;47.460;19.034;2023-04-19T12:21:05;100171.22;;;17.53;49.85
57894;BME280;43710;47.460;19.034;2023-04-19T12:24:08;100165.47;;;17.55;50.00
57894;BME280;43710;47.460;19.034;2023-04-19T12:27:10;100153.22;;;17.70;51.94
57894;BME280;43710;47.460;19.034;2023-04-19T12:30:13;100150.16;;;17.71;50.04
57894;BME280;43710;47.460;19.034;2023-04-19T12:33:15;100155.56;;;17.59;51.91
57894;BME280;43710;47.460;19.034;2023-04-19T12:36:28;100155.47;;;17.68;52.25
57894;BME280;43710;47.460;19.034;2023-04-19T12:39:31;100155.00;;;17.66;54.51
57894;BME280;43710;47.460;19.034;2023-04-19T12:42:33;100153.81;;;17.75;53.64
57894;BME280;43710;47.460;19.034;2023-04-19T12:45:36;100146.75;;;17.83;55.03
57894;BME280;43710;47.460;19.034;2023-04-19T12:48:42;100146.47;;;17.76;53.80
57894;BME280;43710;47.460;19.034;2023-04-19T12:51:44;100144.03;;;17.83;54.99
57894;BME280;43710;47.460;19.034;2023-04-19T12:54:48;100149.31;;;17.79;51.69
57894;BME280;43710;47.460;19.034;2023-04-19T12:57:50;100142.19;;;17.75;51.77
57894;BME280;43710;47.460;19.034;2023-04-19T13:00:53;100141.19;;;17.79;48.66
57894;BME280;43710;47.460;19.034;2023-04-19T13:03:55;100137.69;;;17.79;48.40
57894;BME280;43710;47.460;19.034;2023-04-19T13:07:00;100136.44;;;17.76;49.54
57894;BME280;43710;47.460;19.034;2023-04-19T13:10:03;100129.38;;;17.96;51.24
57894;BME280;43710;47.460;19.034;2023-04-19T13:13:05;100134.44;;;17.98;48.40
57894;BME280;43710;47.460;19.034;2023-04-19T13:16:08;100129.72;;;18.07;47.59
57894;BME280;43710;47.460;19.034;2023-04-19T13:19:10;100124.87;;;18.13;46.70
57894;BME280;43710;47.460;19.034;2023-04-19T13:22:12;100121.16;;;18.17;47.49
57894;BME280;43710;47.460;19.034;2023-04-19T13:25:15;100123.56;;;18.31;47.96
57894;BME280;43710;47.460;19.034;2023-04-19T13:28:17;100129.44;;;18.33;45.51
57894;BME280;43710;47.460;19.034;2023-04-19T13:31:19;100121.63;;;18.31;45.67
57894;BME280;43710;47.460;19.034;2023-04-19T13:34:21;100120.28;;;18.38;47.79
57894;BME280;43710;47.460;19.034;2023-04-19T13:37:24;100132.25;;;18.37;45.63
57894;BME280;43710;47.460;19.034;2023-04-19T13:40:26;100119.59;;;18.41;46.67
57894;BME280;43710;47.460;19.034;2023-04-19T13:43:28;100113.84;;;18.42;45.32
57894;BME280;43710;47.460;19.034;2023-04-19T13:46:31;100124.56;;;18.39;48.91
57894;BME280;43710;47.460;19.034;2023-04-19T13:49:34;100116.66;;;18.46;55.86
57894;BME280;43710;47.460;19.034;2023-04-19T13:52:36;100110.75;;;18.44;53.64
57894;BME280;43710;47.460;19.034;2023-04-19T13:55:39;100116.88;;;18.41;52.23
57894;BME280;43710;47.460;19.034;2023-04-19T13:58:42;100113.38;;;18.40;52.89
57894;BME280;43710;47.460;19.034;2023-04-19T14:01:44;100117.34;;;18.43;53.21
57894;BME280;43710;47.460;19.034;2023-04-19T14:04:47;100118.00;;;18.15;51.78
57894;BME280;43710;47.460;19.034;2023-04-19T14:07:49;100110.75;;;18.07;51.32
57894;BME280;43710;47.460;19.034;2023-04-19T14:10:51;100112.53;;;18.03;50.66
57894;BME280;43710;47.460;19.034;2023-04-19T14:13:54;100111.41;;;18.04;53.31
57894;BME280;43710;47.460;19.034;2023-04-19T14:16:57;100114.66;;;17.85;53.28
57894;BME280;43710;47.460;19.034;2023-04-19T14:19:59;100110.47;;;17.88;53.56
57894;BME280;43710;47.460;19.034;2023-04-19T14:23:01;100111.84;;;17.81;52.40
57894;BME280;43710;47.460;19.034;2023-04-19T14:26:04;100118.87;;;17.95;51.38
57894;BME280;43710;47.460;19.034;2023-04-19T14:29:07;100120.69;;;18.03;50.29
57894;BME280;43710;47.460;19.034;2023-04-19T14:32:09;100121.25;;;17.96;52.43
57894;BME280;43710;47.460;19.034;2023-04-19T14:35:26;100113.62;;;17.77;52.33
57894;BME280;43710;47.460;19.034;2023-04-19T14:38:28;100119.06;;;17.90;51.58
57894;BME280;43710;47.460;19.034;2023-04-19T14:41:30;100125.97;;;17.66;51.30
57894;BME280;43710;47.460;19.034;2023-04-19T14:44:33;100114.34;;;17.66;52.82
57894;BME280;43710;47.460;19.034;2023-04-19T14:47:35;100120.03;;;17.73;53.61
57894;BME280;43710;47.460;19.034;2023-04-19T14:50:37;100117.56;;;17.80;54.29
57894;BME280;43710;47.460;19.034;2023-04-19T14:53:40;100126.91;;;17.70;53.90
57894;BME280;43710;47.460;19.034;2023-04-19T14:56:42;100124.97;;;17.71;53.90
57894;BME280;43710;47.460;19.034;2023-04-19T14:59:44;100122.13;;;17.67;53.47
57894;BME280;43710;47.460;19.034;2023-04-19T15:02:47;100130.94;;;17.64;52.63
57894;BME280;43710;47.460;19.034;2023-04-19T15:05:50;100126.28;;;17.52;51.91
57894;BME280;43710;47.460;19.034;2023-04-19T15:08:52;100131.28;;;17.62;54.79
57894;BME280;43710;47.460;19.034;2023-04-19T15:11:54;100135.97;;;17.53;51.65
57894;BME280;43710;47.460;19.034;2023-04-19T15:14:57;100145.69;;;17.54;51.29
57894;BME280;43710;47.460;19.034;2023-04-19T15:17:59;100145.81;;;17.58;50.66
57894;BME280;43710;47.460;19.034;2023-04-19T15:21:02;100150.00;;;17.55;52.71
57894;BME280;43710;47.460;19.034;2023-04-19T15:24:05;100145.37;;;17.56;51.76
57894;BME280;43710;47.460;19.034;2023-04-19T15:27:08;100135.31;;;17.56;52.42
57894;BME280;43710;47.460;19.034;2023-04-19T15:30:11;100145.19;;;17.40;52.27
57894;BME280;43710;47.460;19.034;2023-04-19T15:33:13;100153.19;;;17.36;51.46
57894;BME280;43710;47.460;19.034;2023-04-19T15:36:16;100143.91;;;17.37;51.66
